^^
Station Historical Data
Daily Summary for February 9, 2018 Units:  Both    English   Metric
« Previous Day
Next Day »
Daily Weekly Monthly Yearly Custom
  High: Low: Average:
Temperature: TemperatureF °F /  -17.8 °C 62.4 °F /  16.9 °C 70.1 °F /  21.2 °C
Dew Point: DewpointF °F /  -17.8 °C 53.8 °F /  12.1 °C 55 °F /  12.8 °C
Humidity: Humidity% 45% 59%
Wind Speed: WindSpeedMPHmph /  0km/h - -33.7mph /  -54.2km/h
Wind Gust: WindSpeedGustMPHmph /  0km/h - -
Wind- -
Pressure: PressureIn in /  0 hPa 29.58 in /  1001.6 hPa -
Precipitation: 0.00 in /  0 mm    
Historical Graphs
 
 
Tabular Data for February 9, 2018
Time Temperature Dew Point Pressure Wind Wind Speed Wind Gust Humidity Rainfall Rate (Hourly) solar Conditions
TemperatureF °F /  -17.8 °C DewpointF °F /  -17.8 °C PressureInin /  0hPa Calm     Humidity% HourlyPrecipInin /  0mm SoftwareType W/m2 Conditions
08:59 62.4 °F /  16.9 °C 55.4 °F /  13 °C 29.63in /  1003.3hPa North -999.9mph /  -1609.1km/h -999.0mph /  -1607.7km/h 78% 0.00in /  0mm meteobridge W/m2
09:05 63.3 °F /  17.4 °C 55.6 °F /  13.1 °C 29.64in /  1003.6hPa South 2.0mph /  3.2km/h 3.0mph /  4.8km/h 76% 0.00in /  0mm meteobridge W/m2
09:12 64.0 °F /  17.8 °C 55.2 °F /  12.9 °C 29.64in /  1003.6hPa South 4.0mph /  6.4km/h 5.0mph /  8km/h 73% 0.00in /  0mm meteobridge W/m2
09:18 64.2 °F /  17.9 °C 55.0 °F /  12.8 °C 29.65in /  1003.9hPa SSE 4.9mph /  7.9km/h 6.0mph /  9.7km/h 72% 0.00in /  0mm meteobridge W/m2
09:24 64.2 °F /  17.9 °C 54.7 °F /  12.6 °C 29.65in /  1003.9hPa SSE 2.0mph /  3.2km/h 6.0mph /  9.7km/h 71% 0.00in /  0mm meteobridge W/m2
09:30 64.8 °F /  18.2 °C 54.3 °F /  12.4 °C 29.65in /  1003.9hPa SSE 2.9mph /  4.7km/h 7.0mph /  11.3km/h 69% 0.00in /  0mm meteobridge W/m2
09:36 65.5 °F /  18.6 °C 55.0 °F /  12.8 °C 29.65in /  1003.9hPa Calm   2.0mph /  3.2km/h 69% 0.00in /  0mm meteobridge W/m2
09:43 66.6 °F /  19.2 °C 56.5 °F /  13.6 °C 29.66in /  1004.3hPa North 4.9mph /  7.9km/h 6.0mph /  9.7km/h 70% 0.00in /  0mm meteobridge W/m2
09:49 66.2 °F /  19 °C 56.8 °F /  13.8 °C 29.66in /  1004.3hPa NNE 2.0mph /  3.2km/h 6.0mph /  9.7km/h 72% 0.00in /  0mm meteobridge W/m2
09:55 66.4 °F /  19.1 °C 56.3 °F /  13.5 °C 29.66in /  1004.3hPa NE 2.9mph /  4.7km/h 4.0mph /  6.4km/h 70% 0.00in /  0mm meteobridge W/m2
10:01 66.9 °F /  19.4 °C 55.9 °F /  13.3 °C 29.66in /  1004.3hPa NE 4.9mph /  7.9km/h 6.0mph /  9.7km/h 68% 0.00in /  0mm meteobridge W/m2
10:07 66.7 °F /  19.3 °C 55.4 °F /  13 °C 29.66in /  1004.3hPa NNE 4.9mph /  7.9km/h 8.0mph /  12.9km/h 67% 0.00in /  0mm meteobridge W/m2
10:13 66.2 °F /  19 °C 54.9 °F /  12.7 °C 29.66in /  1004.3hPa NNE 4.9mph /  7.9km/h 6.0mph /  9.7km/h 67% 0.00in /  0mm meteobridge W/m2
10:19 66.2 °F /  19 °C 54.5 °F /  12.5 °C 29.66in /  1004.3hPa NNE 4.9mph /  7.9km/h 7.0mph /  11.3km/h 66% 0.00in /  0mm meteobridge W/m2
10:25 66.6 °F /  19.2 °C 54.9 °F /  12.7 °C 29.66in /  1004.3hPa North 8.9mph /  14.3km/h 9.0mph /  14.5km/h 66% 0.00in /  0mm meteobridge W/m2
10:31 66.9 °F /  19.4 °C 54.9 °F /  12.7 °C 29.66in /  1004.3hPa NNE 4.9mph /  7.9km/h 7.0mph /  11.3km/h 65% 0.00in /  0mm meteobridge W/m2
10:37 67.6 °F /  19.8 °C 55.0 °F /  12.8 °C 29.66in /  1004.3hPa NNE 4.0mph /  6.4km/h 6.0mph /  9.7km/h 64% 0.00in /  0mm meteobridge W/m2
10:44 68.2 °F /  20.1 °C 55.0 °F /  12.8 °C 29.67in /  1004.6hPa NNE 4.0mph /  6.4km/h 7.0mph /  11.3km/h 63% 0.00in /  0mm meteobridge W/m2
10:50 68.5 °F /  20.3 °C 55.4 °F /  13 °C 29.67in /  1004.6hPa NE 2.9mph /  4.7km/h 7.0mph /  11.3km/h 63% 0.00in /  0mm meteobridge W/m2
10:56 68.9 °F /  20.5 °C 54.9 °F /  12.7 °C 29.67in /  1004.6hPa NE 4.9mph /  7.9km/h 6.0mph /  9.7km/h 61% 0.00in /  0mm meteobridge W/m2
11:02 68.9 °F /  20.5 °C 54.9 °F /  12.7 °C 29.67in /  1004.6hPa NE 4.9mph /  7.9km/h 9.0mph /  14.5km/h 61% 0.00in /  0mm meteobridge W/m2
11:08 69.3 °F /  20.7 °C 55.8 °F /  13.2 °C 29.67in /  1004.6hPa NE 4.0mph /  6.4km/h 6.0mph /  9.7km/h 62% 0.00in /  0mm meteobridge W/m2
11:14 70.0 °F /  21.1 °C 56.3 °F /  13.5 °C 29.67in /  1004.6hPa ENE 4.0mph /  6.4km/h 5.0mph /  8km/h 62% 0.00in /  0mm meteobridge W/m2
11:20 71.6 °F /  22 °C 57.0 °F /  13.9 °C 29.66in /  1004.3hPa NNE 4.0mph /  6.4km/h 11.0mph /  17.7km/h 60% 0.00in /  0mm meteobridge W/m2
11:26 72.0 °F /  22.2 °C 57.4 °F /  14.1 °C 29.66in /  1004.3hPa NE 4.0mph /  6.4km/h 4.0mph /  6.4km/h 60% 0.00in /  0mm meteobridge W/m2
11:32 71.8 °F /  22.1 °C 57.2 °F /  14 °C 29.66in /  1004.3hPa NE 6.0mph /  9.7km/h 9.0mph /  14.5km/h 60% 0.00in /  0mm meteobridge W/m2
11:38 72.1 °F /  22.3 °C 56.1 °F /  13.4 °C 29.66in /  1004.3hPa ENE 2.0mph /  3.2km/h 9.0mph /  14.5km/h 57% 0.00in /  0mm meteobridge W/m2
11:45 73.9 °F /  23.3 °C 55.8 °F /  13.2 °C 29.66in /  1004.3hPa North 4.0mph /  6.4km/h 5.0mph /  8km/h 53% 0.00in /  0mm meteobridge W/m2
11:51 74.3 °F /  23.5 °C 56.7 °F /  13.7 °C 29.65in /  1003.9hPa East 2.0mph /  3.2km/h 5.0mph /  8km/h 54% 0.00in /  0mm meteobridge W/m2
11:57 74.8 °F /  23.8 °C 56.5 °F /  13.6 °C 29.65in /  1003.9hPa East 2.0mph /  3.2km/h 2.0mph /  3.2km/h 53% 0.00in /  0mm meteobridge W/m2
12:03 74.5 °F /  23.6 °C 54.1 °F /  12.3 °C 29.65in /  1003.9hPa SE 4.0mph /  6.4km/h 5.0mph /  8km/h 49% 0.00in /  0mm meteobridge W/m2
12:09 73.8 °F /  23.2 °C 55.0 °F /  12.8 °C 29.65in /  1003.9hPa Calm   4.0mph /  6.4km/h 52% 0.00in /  0mm meteobridge W/m2
12:15 74.1 °F /  23.4 °C 54.9 °F /  12.7 °C 29.65in /  1003.9hPa ENE 2.9mph /  4.7km/h 6.0mph /  9.7km/h 51% 0.00in /  0mm meteobridge W/m2
12:22 74.7 °F /  23.7 °C 55.9 °F /  13.3 °C 29.65in /  1003.9hPa ESE 0.9mph /  1.4km/h 3.0mph /  4.8km/h 52% 0.00in /  0mm meteobridge W/m2
12:28 74.1 °F /  23.4 °C 53.8 °F /  12.1 °C 29.64in /  1003.6hPa SE 4.0mph /  6.4km/h 7.0mph /  11.3km/h 49% 0.00in /  0mm meteobridge W/m2
12:34 73.9 °F /  23.3 °C 54.1 °F /  12.3 °C 29.64in /  1003.6hPa SSE 0.9mph /  1.4km/h 3.0mph /  4.8km/h 50% 0.00in /  0mm meteobridge W/m2
12:40 74.7 °F /  23.7 °C 55.4 °F /  13 °C 29.63in /  1003.3hPa SSW 4.9mph /  7.9km/h 6.0mph /  9.7km/h 51% 0.00in /  0mm meteobridge W/m2
12:46 75.7 °F /  24.3 °C 55.2 °F /  12.9 °C 29.63in /  1003.3hPa SSW 2.0mph /  3.2km/h 3.0mph /  4.8km/h 49% 0.00in /  0mm meteobridge W/m2
12:52 77.0 °F /  25 °C 54.7 °F /  12.6 °C 29.63in /  1003.3hPa South 2.0mph /  3.2km/h 5.0mph /  8km/h 46% 0.00in /  0mm meteobridge W/m2
12:59 77.0 °F /  25 °C 54.7 °F /  12.6 °C 29.62in /  1002.9hPa North 4.0mph /  6.4km/h 11.0mph /  17.7km/h 46% 0.00in /  0mm meteobridge W/m2
13:05 77.0 °F /  25 °C 55.2 °F /  12.9 °C 29.62in /  1002.9hPa NE 2.9mph /  4.7km/h 4.0mph /  6.4km/h 47% 0.00in /  0mm meteobridge W/m2
13:25 77.5 °F /  25.3 °C 54.5 °F /  12.5 °C 29.62in /  1002.9hPa NE 2.9mph /  4.7km/h 6.0mph /  9.7km/h 45% 0.00in /  0mm meteobridge W/m2
13:31 77.2 °F /  25.1 °C 54.9 °F /  12.7 °C 29.62in /  1002.9hPa ENE 2.0mph /  3.2km/h 9.0mph /  14.5km/h 46% 0.00in /  0mm meteobridge W/m2
13:38 77.0 °F /  25 °C 54.7 °F /  12.6 °C 29.62in /  1002.9hPa NE 2.0mph /  3.2km/h 4.0mph /  6.4km/h 46% 0.00in /  0mm meteobridge W/m2
13:44 76.6 °F /  24.8 °C 54.9 °F /  12.7 °C 29.61in /  1002.6hPa SSE 2.9mph /  4.7km/h 5.0mph /  8km/h 47% 0.00in /  0mm meteobridge W/m2
13:50 75.7 °F /  24.3 °C 54.7 °F /  12.6 °C 29.61in /  1002.6hPa ENE 2.0mph /  3.2km/h 6.0mph /  9.7km/h 48% 0.00in /  0mm meteobridge W/m2
13:56 75.6 °F /  24.2 °C 54.5 °F /  12.5 °C 29.61in /  1002.6hPa ENE 4.9mph /  7.9km/h 6.0mph /  9.7km/h 48% 0.00in /  0mm meteobridge W/m2
14:02 75.2 °F /  24 °C 54.7 °F /  12.6 °C 29.61in /  1002.6hPa South 2.9mph /  4.7km/h 5.0mph /  8km/h 49% 0.00in /  0mm meteobridge W/m2
14:08 75.0 °F /  23.9 °C 54.5 °F /  12.5 °C 29.60in /  1002.3hPa South 8.9mph /  14.3km/h 11.0mph /  17.7km/h 49% 0.00in /  0mm meteobridge W/m2
14:14 75.0 °F /  23.9 °C 55.0 °F /  12.8 °C 29.60in /  1002.3hPa SSW 4.0mph /  6.4km/h 6.0mph /  9.7km/h 50% 0.00in /  0mm meteobridge W/m2
14:20 75.0 °F /  23.9 °C 54.0 °F /  12.2 °C 29.60in /  1002.3hPa SSW 2.9mph /  4.7km/h 6.0mph /  9.7km/h 48% 0.00in /  0mm meteobridge W/m2
14:26 75.6 °F /  24.2 °C 55.6 °F /  13.1 °C 29.60in /  1002.3hPa SSW 2.0mph /  3.2km/h 12.0mph /  19.3km/h 50% 0.00in /  0mm meteobridge W/m2
14:33 75.9 °F /  24.4 °C 55.9 °F /  13.3 °C 29.60in /  1002.3hPa SW 2.9mph /  4.7km/h 7.0mph /  11.3km/h 50% 0.00in /  0mm meteobridge W/m2
14:39 76.5 °F /  24.7 °C 55.9 °F /  13.3 °C 29.60in /  1002.3hPa SSW 4.0mph /  6.4km/h 10.0mph /  16.1km/h 49% 0.00in /  0mm meteobridge W/m2
14:45 77.7 °F /  25.4 °C 57.6 °F /  14.2 °C 29.59in /  1001.9hPa SE 11.0mph /  17.7km/h 11.0mph /  17.7km/h 50% 0.00in /  0mm meteobridge W/m2
14:51 79.2 °F /  26.2 °C 57.7 °F /  14.3 °C 29.59in /  1001.9hPa SSW 4.9mph /  7.9km/h 8.0mph /  12.9km/h 48% 0.00in /  0mm meteobridge W/m2
14:57 79.5 °F /  26.4 °C 56.3 °F /  13.5 °C 29.59in /  1001.9hPa SSW 2.0mph /  3.2km/h 9.0mph /  14.5km/h 45% 0.00in /  0mm meteobridge W/m2
15:03 79.7 °F /  26.5 °C 56.5 °F /  13.6 °C 29.59in /  1001.9hPa SSW 4.9mph /  7.9km/h 7.0mph /  11.3km/h 45% 0.00in /  0mm meteobridge W/m2
15:09 78.6 °F /  25.9 °C 55.6 °F /  13.1 °C 29.59in /  1001.9hPa SW 8.9mph /  14.3km/h 15.0mph /  24.1km/h 45% 0.00in /  0mm meteobridge W/m2
15:15 76.1 °F /  24.5 °C 56.7 °F /  13.7 °C 29.58in /  1001.6hPa SE 2.9mph /  4.7km/h 10.0mph /  16.1km/h 51% 0.00in /  0mm meteobridge W/m2
15:24 70.5 °F /  21.4 °C 55.9 °F /  13.3 °C 29.59in /  1001.9hPa NE 14.1mph /  22.7km/h 14.1mph /  22.7km/h 60% 0.00in /  0mm meteobridge W/m2
15:30 68.4 °F /  20.2 °C 55.2 °F /  12.9 °C 29.59in /  1001.9hPa ENE 12.1mph /  19.5km/h 16.0mph /  25.7km/h 63% 0.00in /  0mm meteobridge W/m2
15:36 67.8 °F /  19.9 °C 55.6 °F /  13.1 °C 29.59in /  1001.9hPa NE 8.9mph /  14.3km/h 12.0mph /  19.3km/h 65% 0.00in /  0mm meteobridge W/m2
15:42 67.6 °F /  19.8 °C 55.9 °F /  13.3 °C 29.59in /  1001.9hPa NE 4.0mph /  6.4km/h 13.0mph /  20.9km/h 66% 0.00in /  0mm meteobridge W/m2
15:48 67.5 °F /  19.7 °C 56.1 °F /  13.4 °C 29.59in /  1001.9hPa NNE 8.9mph /  14.3km/h 13.0mph /  20.9km/h 67% 0.00in /  0mm meteobridge W/m2
15:54 67.5 °F /  19.7 °C 57.7 °F /  14.3 °C 29.58in /  1001.6hPa NE 8.1mph /  13km/h 13.0mph /  20.9km/h 71% 0.00in /  0mm meteobridge W/m2
16:00 66.7 °F /  19.3 °C 57.4 °F /  14.1 °C 29.59in /  1001.9hPa North 6.9mph /  11.1km/h 16.0mph /  25.7km/h 72% 0.00in /  0mm meteobridge W/m2
16:07 66.2 °F /  19 °C 57.2 °F /  14 °C 29.59in /  1001.9hPa ENE 6.0mph /  9.7km/h 11.0mph /  17.7km/h 73% 0.00in /  0mm meteobridge W/m2
16:13 66.6 °F /  19.2 °C 57.6 °F /  14.2 °C 29.59in /  1001.9hPa NE 10.1mph /  16.3km/h 15.0mph /  24.1km/h 73% 0.00in /  0mm meteobridge W/m2
16:19 68.0 °F /  20 °C 58.3 °F /  14.6 °C 29.59in /  1001.9hPa NNE 19.0mph /  30.6km/h 19.0mph /  30.6km/h 71% 0.00in /  0mm meteobridge W/m2
16:25 68.4 °F /  20.2 °C 57.7 °F /  14.3 °C 29.59in /  1001.9hPa NE 13.0mph /  20.9km/h 19.0mph /  30.6km/h 69% 0.00in /  0mm meteobridge W/m2
16:31 67.8 °F /  19.9 °C 57.2 °F /  14 °C 29.59in /  1001.9hPa North 14.1mph /  22.7km/h 21.0mph /  33.8km/h 69% 0.00in /  0mm meteobridge W/m2
16:37 66.9 °F /  19.4 °C 56.8 °F /  13.8 °C 29.60in /  1002.3hPa NNE 6.9mph /  11.1km/h 17.0mph /  27.4km/h 70% 0.00in /  0mm meteobridge W/m2
16:43 66.6 °F /  19.2 °C 56.5 °F /  13.6 °C 29.62in /  1002.9hPa North 8.9mph /  14.3km/h 9.0mph /  14.5km/h 70% 0.00in /  0mm meteobridge W/m2
16:50 66.6 °F /  19.2 °C 56.5 °F /  13.6 °C 29.62in /  1002.9hPa North 8.9mph /  14.3km/h -999.0mph /  -1607.7km/h 70% 0.00in /  0mm meteobridge W/m2
16:57 66.6 °F /  19.2 °C 56.5 °F /  13.6 °C 29.63in /  1003.3hPa North -999.9mph /  -1609.1km/h -999.0mph /  -1607.7km/h 70% 0.00in /  0mm meteobridge W/m2
17:03 66.6 °F /  19.2 °C 56.5 °F /  13.6 °C 29.62in /  1002.9hPa North -999.9mph /  -1609.1km/h -999.0mph /  -1607.7km/h 70% 0.00in /  0mm meteobridge W/m2
Regenstein, Windhoek, Namibia
Compliments of Weather Underground - 2.5 mb